sensor_id;sensor_type;location;lat;lon;timestamp;temperature;humidity
26164;DHT22;13914;48.178;11.716;2023-04-05T00:01:30;0.10;66.30
26164;DHT22;13914;48.178;11.716;2023-04-05T00:03:56;0.10;66.20
26164;DHT22;13914;48.178;11.716;2023-04-05T00:06:26;0.10;66.40
26164;DHT22;13914;48.178;11.716;2023-04-05T00:08:59;0.00;66.40
26164;DHT22;13914;48.178;11.716;2023-04-05T00:11:35;0.00;66.30
26164;DHT22;13914;48.178;11.716;2023-04-05T00:14:01;0.00;66.20
26164;DHT22;13914;48.178;11.716;2023-04-05T00:16:27;0.00;66.40
26164;DHT22;13914;48.178;11.716;2023-04-05T00:18:55;0.00;66.50
26164;DHT22;13914;48.178;11.716;2023-04-05T00:21:21;0.00;66.50
26164;DHT22;13914;48.178;11.716;2023-04-05T00:23:48;-0.10;66.50
26164;DHT22;13914;48.178;11.716;2023-04-05T00:26:18;-0.10;66.40
26164;DHT22;13914;48.178;11.716;2023-04-05T00:28:43;-0.20;66.20
26164;DHT22;13914;48.178;11.716;2023-04-05T00:31:10;-0.20;66.50
26164;DHT22;13914;48.178;11.716;2023-04-05T00:33:36;-0.20;66.50
26164;DHT22;13914;48.178;11.716;2023-04-05T00:36:08;-0.20;66.60
26164;DHT22;13914;48.178;11.716;2023-04-05T00:38:35;-0.30;66.40
26164;DHT22;13914;48.178;11.716;2023-04-05T00:41:01;-0.30;66.40
26164;DHT22;13914;48.178;11.716;2023-04-05T00:43:27;-0.30;66.50
26164;DHT22;13914;48.178;11.716;2023-04-05T00:45:53;-0.30;66.60
26164;DHT22;13914;48.178;11.716;2023-04-05T00:48:19;-0.40;66.60
26164;DHT22;13914;48.178;11.716;2023-04-05T00:50:45;-0.40;66.50
26164;DHT22;13914;48.178;11.716;2023-04-05T00:53:13;-0.40;66.50
26164;DHT22;13914;48.178;11.716;2023-04-05T00:55:40;-0.40;66.70
26164;DHT22;13914;48.178;11.716;2023-04-05T00:58:06;-0.40;66.70
26164;DHT22;13914;48.178;11.716;2023-04-05T01:00:35;-0.40;66.70
26164;DHT22;13914;48.178;11.716;2023-04-05T01:03:03;-0.50;66.60
26164;DHT22;13914;48.178;11.716;2023-04-05T01:05:51;-0.50;66.70
26164;DHT22;13914;48.178;11.716;2023-04-05T01:08:24;-0.50;66.80
26164;DHT22;13914;48.178;11.716;2023-04-05T01:10:54;-0.50;66.80
26164;DHT22;13914;48.178;11.716;2023-04-05T01:13:23;-0.60;66.80
26164;DHT22;13914;48.178;11.716;2023-04-05T01:15:49;-0.60;66.80
26164;DHT22;13914;48.178;11.716;2023-04-05T01:18:15;-0.60;66.90
26164;DHT22;13914;48.178;11.716;2023-04-05T01:20:42;-0.60;66.60
26164;DHT22;13914;48.178;11.716;2023-04-05T01:31:50;-0.70;67.00
26164;DHT22;13914;48.178;11.716;2023-04-05T01:34:32;-0.70;66.90
26164;DHT22;13914;48.178;11.716;2023-04-05T01:37:06;-0.80;66.80
26164;DHT22;13914;48.178;11.716;2023-04-05T01:39:34;-0.80;67.00
26164;DHT22;13914;48.178;11.716;2023-04-05T01:42:01;-0.70;66.80
26164;DHT22;13914;48.178;11.716;2023-04-05T01:44:27;-0.80;67.00
26164;DHT22;13914;48.178;11.716;2023-04-05T01:46:53;-0.80;66.80
26164;DHT22;13914;48.178;11.716;2023-04-05T01:49:19;-0.90;66.80
26164;DHT22;13914;48.178;11.716;2023-04-05T01:51:45;-0.90;66.90
26164;DHT22;13914;48.178;11.716;2023-04-05T01:54:11;-0.90;67.10
26164;DHT22;13914;48.178;11.716;2023-04-05T01:56:37;-0.90;66.90
26164;DHT22;13914;48.178;11.716;2023-04-05T01:59:02;-0.90;67.00
26164;DHT22;13914;48.178;11.716;2023-04-05T02:01:28;-0.90;66.90
26164;DHT22;13914;48.178;11.716;2023-04-05T02:03:54;-1.00;67.00
26164;DHT22;13914;48.178;11.716;2023-04-05T02:06:19;-1.00;66.90
26164;DHT22;13914;48.178;11.716;2023-04-05T02:08:45;-1.00;67.00
26164;DHT22;13914;48.178;11.716;2023-04-05T02:11:11;-1.00;67.10
26164;DHT22;13914;48.178;11.716;2023-04-05T02:13:36;-1.10;67.10
26164;DHT22;13914;48.178;11.716;2023-04-05T02:16:02;-1.10;67.00
26164;DHT22;13914;48.178;11.716;2023-04-05T02:18:28;-1.10;67.10
26164;DHT22;13914;48.178;11.716;2023-04-05T02:21:03;-1.10;67.10
26164;DHT22;13914;48.178;11.716;2023-04-05T02:23:30;-1.10;67.20
26164;DHT22;13914;48.178;11.716;2023-04-05T02:25:59;-1.10;67.10
26164;DHT22;13914;48.178;11.716;2023-04-05T02:28:25;-1.20;67.40
26164;DHT22;13914;48.178;11.716;2023-04-05T02:30:51;-1.20;67.30
26164;DHT22;13914;48.178;11.716;2023-04-05T02:33:17;-1.20;67.30
26164;DHT22;13914;48.178;11.716;2023-04-05T02:35:43;-1.20;67.20
26164;DHT22;13914;48.178;11.716;2023-04-05T02:38:08;-1.20;67.20
26164;DHT22;13914;48.178;11.716;2023-04-05T02:40:34;-1.20;67.30
26164;DHT22;13914;48.178;11.716;2023-04-05T02:43:00;-1.30;67.30
26164;DHT22;13914;48.178;11.716;2023-04-05T02:45:26;-1.30;67.40
26164;DHT22;13914;48.178;11.716;2023-04-05T02:47:52;-1.30;68.30
26164;DHT22;13914;48.178;11.716;2023-04-05T02:50:18;-1.30;67.10
26164;DHT22;13914;48.178;11.716;2023-04-05T02:52:47;-1.30;67.30
26164;DHT22;13914;48.178;11.716;2023-04-05T02:55:16;-1.30;67.20
26164;DHT22;13914;48.178;11.716;2023-04-05T02:57:42;-1.40;67.40
26164;DHT22;13914;48.178;11.716;2023-04-05T03:00:08;-1.40;67.30
26164;DHT22;13914;48.178;11.716;2023-04-05T03:02:36;-1.40;67.40
26164;DHT22;13914;48.178;11.716;2023-04-05T03:05:02;-1.40;67.40
26164;DHT22;13914;48.178;11.716;2023-04-05T03:07:28;-1.40;67.50
26164;DHT22;13914;48.178;11.716;2023-04-05T03:09:54;-1.40;67.30
26164;DHT22;13914;48.178;11.716;2023-04-05T03:12:21;-1.50;67.30
26164;DHT22;13914;48.178;11.716;2023-04-05T03:14:46;-1.50;67.20
26164;DHT22;13914;48.178;11.716;2023-04-05T03:17:12;-1.50;67.30
26164;DHT22;13914;48.178;11.716;2023-04-05T03:19:38;-1.50;67.30
26164;DHT22;13914;48.178;11.716;2023-04-05T03:22:04;-1.50;67.40
26164;DHT22;13914;48.178;11.716;2023-04-05T03:24:30;-1.50;67.40
26164;DHT22;13914;48.178;11.716;2023-04-05T03:26:56;-1.60;67.30
26164;DHT22;13914;48.178;11.716;2023-04-05T03:29:24;-1.60;67.30
26164;DHT22;13914;48.178;11.716;2023-04-05T03:31:50;-1.60;67.10
26164;DHT22;13914;48.178;11.716;2023-04-05T03:34:15;-1.60;67.10
26164;DHT22;13914;48.178;11.716;2023-04-05T03:36:41;-1.60;67.30
26164;DHT22;13914;48.178;11.716;2023-04-05T03:39:11;-1.60;67.40
26164;DHT22;13914;48.178;11.716;2023-04-05T03:41:38;-1.70;67.40
26164;DHT22;13914;48.178;11.716;2023-04-05T03:44:05;-1.70;67.40
26164;DHT22;13914;48.178;11.716;2023-04-05T03:46:31;-1.70;67.20
26164;DHT22;13914;48.178;11.716;2023-04-05T03:48:57;-1.70;67.40
26164;DHT22;13914;48.178;11.716;2023-04-05T03:51:23;-1.70;67.60
26164;DHT22;13914;48.178;11.716;2023-04-05T03:53:49;-1.70;67.40
26164;DHT22;13914;48.178;11.716;2023-04-05T03:56:15;-1.80;67.40
26164;DHT22;13914;48.178;11.716;2023-04-05T03:58:42;-1.80;67.40
26164;DHT22;13914;48.178;11.716;2023-04-05T04:01:08;-1.80;67.50
26164;DHT22;13914;48.178;11.716;2023-04-05T04:03:34;-1.80;67.50
26164;DHT22;13914;48.178;11.716;2023-04-05T04:06:02;-1.80;67.30
26164;DHT22;13914;48.178;11.716;2023-04-05T04:08:28;-1.80;67.50
26164;DHT22;13914;48.178;11.716;2023-04-05T04:10:54;-1.90;67.40
26164;DHT22;13914;48.178;11.716;2023-04-05T04:13:20;-1.90;67.50
26164;DHT22;13914;48.178;11.716;2023-04-05T04:15:46;-1.90;67.50
26164;DHT22;13914;48.178;11.716;2023-04-05T04:18:12;-1.90;67.40
26164;DHT22;13914;48.178;11.716;2023-04-05T04:20:37;-1.90;67.50
26164;DHT22;13914;48.178;11.716;2023-04-05T04:23:03;-1.90;67.30
26164;DHT22;13914;48.178;11.716;2023-04-05T04:25:30;-1.90;67.50
26164;DHT22;13914;48.178;11.716;2023-04-05T04:27:56;-2.00;67.40
26164;DHT22;13914;48.178;11.716;2023-04-05T04:30:22;-2.00;67.50
26164;DHT22;13914;48.178;11.716;2023-04-05T04:32:49;-2.00;67.70
26164;DHT22;13914;48.178;11.716;2023-04-05T04:35:23;-2.00;67.70
26164;DHT22;13914;48.178;11.716;2023-04-05T04:37:53;-2.00;67.60
26164;DHT22;13914;48.178;11.716;2023-04-05T04:40:23;-2.00;67.60
26164;DHT22;13914;48.178;11.716;2023-04-05T04:43:06;-2.00;67.60
26164;DHT22;13914;48.178;11.716;2023-04-05T04:45:34;-2.10;67.50
26164;DHT22;13914;48.178;11.716;2023-04-05T04:48:02;-2.10;67.50
26164;DHT22;13914;48.178;11.716;2023-04-05T04:50:29;-2.10;67.50
26164;DHT22;13914;48.178;11.716;2023-04-05T04:52:59;-2.10;67.70
26164;DHT22;13914;48.178;11.716;2023-04-05T04:55:26;-2.10;67.60
26164;DHT22;13914;48.178;11.716;2023-04-05T04:57:53;-2.20;67.60
26164;DHT22;13914;48.178;11.716;2023-04-05T05:00:20;-2.20;67.60
26164;DHT22;13914;48.178;11.716;2023-04-05T05:02:46;-2.20;67.40
26164;DHT22;13914;48.178;11.716;2023-04-05T05:05:12;-2.20;67.40
26164;DHT22;13914;48.178;11.716;2023-04-05T05:07:39;-2.20;67.60
26164;DHT22;13914;48.178;11.716;2023-04-05T05:10:06;-2.20;67.50
26164;DHT22;13914;48.178;11.716;2023-04-05T05:12:32;-2.30;67.20
26164;DHT22;13914;48.178;11.716;2023-04-05T05:14:58;-2.30;67.20
26164;DHT22;13914;48.178;11.716;2023-04-05T05:17:24;-2.30;67.20
26164;DHT22;13914;48.178;11.716;2023-04-05T05:19:49;-2.30;67.40
26164;DHT22;13914;48.178;11.716;2023-04-05T05:22:16;-2.30;67.50
26164;DHT22;13914;48.178;11.716;2023-04-05T05:24:43;-2.30;67.50
26164;DHT22;13914;48.178;11.716;2023-04-05T05:27:09;-2.30;67.40
26164;DHT22;13914;48.178;11.716;2023-04-05T05:29:34;-2.30;67.40
26164;DHT22;13914;48.178;11.716;2023-04-05T05:32:00;-2.30;67.40
26164;DHT22;13914;48.178;11.716;2023-04-05T05:34:26;-2.30;67.60
26164;DHT22;13914;48.178;11.716;2023-04-05T05:36:53;-2.30;67.60
26164;DHT22;13914;48.178;11.716;2023-04-05T05:39:19;-2.30;67.50
26164;DHT22;13914;48.178;11.716;2023-04-05T05:41:46;-2.30;67.50
26164;DHT22;13914;48.178;11.716;2023-04-05T05:44:12;-2.30;67.50
26164;DHT22;13914;48.178;11.716;2023-04-05T05:46:38;-2.30;67.40
26164;DHT22;13914;48.178;11.716;2023-04-05T05:49:03;-2.30;67.40
26164;DHT22;13914;48.178;11.716;2023-04-05T05:51:29;-2.30;67.20
26164;DHT22;13914;48.178;11.716;2023-04-05T05:53:56;-2.30;67.30
26164;DHT22;13914;48.178;11.716;2023-04-05T05:56:22;-2.30;67.20
26164;DHT22;13914;48.178;11.716;2023-04-05T05:58:48;-2.30;67.20
26164;DHT22;13914;48.178;11.716;2023-04-05T06:01:13;-2.20;67.10
26164;DHT22;13914;48.178;11.716;2023-04-05T06:03:39;-2.20;67.60
26164;DHT22;13914;48.178;11.716;2023-04-05T06:06:05;-2.30;67.40
26164;DHT22;13914;48.178;11.716;2023-04-05T06:08:32;-2.30;67.20
26164;DHT22;13914;48.178;11.716;2023-04-05T06:10:58;-2.20;67.60
26164;DHT22;13914;48.178;11.716;2023-04-05T06:13:24;-2.10;67.50
26164;DHT22;13914;48.178;11.716;2023-04-05T06:15:50;-2.10;67.90
26164;DHT22;13914;48.178;11.716;2023-04-05T06:18:15;-2.10;68.30
26164;DHT22;13914;48.178;11.716;2023-04-05T06:20:41;-2.00;68.00
26164;DHT22;13914;48.178;11.716;2023-04-05T06:23:09;-2.00;68.00
26164;DHT22;13914;48.178;11.716;2023-04-05T06:25:35;-2.00;68.50
26164;DHT22;13914;48.178;11.716;2023-04-05T06:28:04;-2.00;67.80
26164;DHT22;13914;48.178;11.716;2023-04-05T06:30:30;-1.90;68.90
26164;DHT22;13914;48.178;11.716;2023-04-05T06:32:57;-1.80;69.30
26164;DHT22;13914;48.178;11.716;2023-04-05T06:35:23;-1.80;68.70
26164;DHT22;13914;48.178;11.716;2023-04-05T06:37:49;-1.80;68.60
26164;DHT22;13914;48.178;11.716;2023-04-05T06:40:15;-1.70;68.40
26164;DHT22;13914;48.178;11.716;2023-04-05T06:42:41;-1.70;69.20
26164;DHT22;13914;48.178;11.716;2023-04-05T06:45:07;-1.60;70.00
26164;DHT22;13914;48.178;11.716;2023-04-05T06:47:34;-1.60;68.90
26164;DHT22;13914;48.178;11.716;2023-04-05T06:50:00;-1.50;69.00
26164;DHT22;13914;48.178;11.716;2023-04-05T06:52:27;-1.50;69.30
26164;DHT22;13914;48.178;11.716;2023-04-05T06:54:53;-1.30;69.70
26164;DHT22;13914;48.178;11.716;2023-04-05T06:57:19;-1.20;70.00
26164;DHT22;13914;48.178;11.716;2023-04-05T06:59:44;-1.10;70.50
26164;DHT22;13914;48.178;11.716;2023-04-05T07:02:10;-1.00;70.70
26164;DHT22;13914;48.178;11.716;2023-04-05T07:04:36;-0.90;71.10
26164;DHT22;13914;48.178;11.716;2023-04-05T07:07:03;-0.80;71.50
26164;DHT22;13914;48.178;11.716;2023-04-05T07:09:29;-0.60;71.30
26164;DHT22;13914;48.178;11.716;2023-04-05T07:11:57;-0.40;71.50
26164;DHT22;13914;48.178;11.716;2023-04-05T07:14:23;-0.30;71.70
26164;DHT22;13914;48.178;11.716;2023-04-05T07:16:49;-0.10;71.70
26164;DHT22;13914;48.178;11.716;2023-04-05T07:19:16;0.10;71.80
26164;DHT22;13914;48.178;11.716;2023-04-05T07:21:43;0.30;71.60
26164;DHT22;13914;48.178;11.716;2023-04-05T07:24:08;0.50;72.10
26164;DHT22;13914;48.178;11.716;2023-04-05T07:26:35;0.70;72.40
26164;DHT22;13914;48.178;11.716;2023-04-05T07:29:03;0.90;73.00
26164;DHT22;13914;48.178;11.716;2023-04-05T07:31:30;1.10;73.40
26164;DHT22;13914;48.178;11.716;2023-04-05T07:33:57;1.30;73.70
26164;DHT22;13914;48.178;11.716;2023-04-05T07:36:24;1.50;73.50
26164;DHT22;13914;48.178;11.716;2023-04-05T07:38:54;1.70;73.90
26164;DHT22;13914;48.178;11.716;2023-04-05T07:41:20;1.90;73.90
26164;DHT22;13914;48.178;11.716;2023-04-05T07:43:45;2.00;73.00
26164;DHT22;13914;48.178;11.716;2023-04-05T07:46:11;2.20;73.30
26164;DHT22;13914;48.178;11.716;2023-04-05T07:48:37;2.40;73.60
26164;DHT22;13914;48.178;11.716;2023-04-05T07:51:03;2.60;73.40
26164;DHT22;13914;48.178;11.716;2023-04-05T07:53:34;2.80;73.30
26164;DHT22;13914;48.178;11.716;2023-04-05T07:56:07;3.00;73.10
26164;DHT22;13914;48.178;11.716;2023-04-05T07:58:37;3.10;73.00
26164;DHT22;13914;48.178;11.716;2023-04-05T08:01:07;3.30;72.20
26164;DHT22;13914;48.178;11.716;2023-04-05T08:03:33;3.40;71.60
26164;DHT22;13914;48.178;11.716;2023-04-05T08:06:12;3.60;72.00
26164;DHT22;13914;48.178;11.716;2023-04-05T08:08:39;3.70;71.80
26164;DHT22;13914;48.178;11.716;2023-04-05T08:11:05;3.90;71.60
26164;DHT22;13914;48.178;11.716;2023-04-05T08:13:31;3.90;71.50
26164;DHT22;13914;48.178;11.716;2023-04-05T08:15:58;4.00;68.60
26164;DHT22;13914;48.178;11.716;2023-04-05T08:18:25;4.20;70.30
26164;DHT22;13914;48.178;11.716;2023-04-05T08:20:52;4.30;70.00
26164;DHT22;13914;48.178;11.716;2023-04-05T08:23:18;4.40;67.90
26164;DHT22;13914;48.178;11.716;2023-04-05T08:25:44;4.50;66.90
26164;DHT22;13914;48.178;11.716;2023-04-05T08:28:10;4.60;66.30
26164;DHT22;13914;48.178;11.716;2023-04-05T08:30:35;4.70;65.30
26164;DHT22;13914;48.178;11.716;2023-04-05T08:33:03;4.80;66.90
26164;DHT22;13914;48.178;11.716;2023-04-05T08:35:29;5.00;68.00
26164;DHT22;13914;48.178;11.716;2023-04-05T08:37:55;5.10;65.30
26164;DHT22;13914;48.178;11.716;2023-04-05T08:40:22;5.20;65.10
26164;DHT22;13914;48.178;11.716;2023-04-05T08:42:54;5.30;66.20
26164;DHT22;13914;48.178;11.716;2023-04-05T08:45:22;5.30;63.70
26164;DHT22;13914;48.178;11.716;2023-04-05T08:47:51;5.50;64.20
26164;DHT22;13914;48.178;11.716;2023-04-05T08:50:17;5.60;66.20
26164;DHT22;13914;48.178;11.716;2023-04-05T08:52:44;5.80;66.30
26164;DHT22;13914;48.178;11.716;2023-04-05T08:55:14;5.90;67.00
26164;DHT22;13914;48.178;11.716;2023-04-05T08:57:42;6.10;67.50
26164;DHT22;13914;48.178;11.716;2023-04-05T09:00:08;6.20;65.80
26164;DHT22;13914;48.178;11.716;2023-04-05T09:02:34;6.30;66.60
26164;DHT22;13914;48.178;11.716;2023-04-05T09:05:01;6.50;65.70
26164;DHT22;13914;48.178;11.716;2023-04-05T09:07:27;6.60;63.30
26164;DHT22;13914;48.178;11.716;2023-04-05T09:09:54;6.70;63.30
26164;DHT22;13914;48.178;11.716;2023-04-05T09:12:24;6.80;63.00
26164;DHT22;13914;48.178;11.716;2023-04-05T09:14:51;6.80;60.10
26164;DHT22;13914;48.178;11.716;2023-04-05T09:17:17;6.90;60.90
26164;DHT22;13914;48.178;11.716;2023-04-05T09:19:45;6.90;58.90
26164;DHT22;13914;48.178;11.716;2023-04-05T09:22:14;6.90;60.30
26164;DHT22;13914;48.178;11.716;2023-04-05T09:24:43;7.00;62.20
26164;DHT22;13914;48.178;11.716;2023-04-05T09:27:10;7.20;63.90
26164;DHT22;13914;48.178;11.716;2023-04-05T09:29:37;7.40;64.70
26164;DHT22;13914;48.178;11.716;2023-04-05T09:32:05;7.50;64.60
26164;DHT22;13914;48.178;11.716;2023-04-05T09:34:32;7.60;64.50
26164;DHT22;13914;48.178;11.716;2023-04-05T09:37:00;7.80;64.80
26164;DHT22;13914;48.178;11.716;2023-04-05T09:39:30;7.90;65.00
26164;DHT22;13914;48.178;11.716;2023-04-05T09:42:03;8.00;60.90
26164;DHT22;13914;48.178;11.716;2023-04-05T09:44:52;7.90;58.50
26164;DHT22;13914;48.178;11.716;2023-04-05T09:47:23;7.90;61.20
26164;DHT22;13914;48.178;11.716;2023-04-05T09:49:55;7.90;58.60
26164;DHT22;13914;48.178;11.716;2023-04-05T09:52:28;8.00;59.30
26164;DHT22;13914;48.178;11.716;2023-04-05T09:54:59;8.00;59.10
26164;DHT22;13914;48.178;11.716;2023-04-05T09:57:26;8.10;58.80
26164;DHT22;13914;48.178;11.716;2023-04-05T09:59:54;8.20;57.70
26164;DHT22;13914;48.178;11.716;2023-04-05T10:02:20;8.20;59.50
26164;DHT22;13914;48.178;11.716;2023-04-05T10:04:46;8.30;61.70
26164;DHT22;13914;48.178;11.716;2023-04-05T10:07:17;8.40;62.10
26164;DHT22;13914;48.178;11.716;2023-04-05T10:09:44;8.60;62.40
26164;DHT22;13914;48.178;11.716;2023-04-05T10:15:06;8.80;62.60
26164;DHT22;13914;48.178;11.716;2023-04-05T10:17:50;9.00;59.70
26164;DHT22;13914;48.178;11.716;2023-04-05T10:20:18;9.00;60.50
26164;DHT22;13914;48.178;11.716;2023-04-05T10:27:54;9.30;61.00
26164;DHT22;13914;48.178;11.716;2023-04-05T10:30:28;9.30;58.70
26164;DHT22;13914;48.178;11.716;2023-04-05T10:35:37;9.20;55.90
26164;DHT22;13914;48.178;11.716;2023-04-05T10:40:36;9.20;55.90
26164;DHT22;13914;48.178;11.716;2023-04-05T10:43:06;9.20;55.60
26164;DHT22;13914;48.178;11.716;2023-04-05T10:45:40;9.10;55.00
26164;DHT22;13914;48.178;11.716;2023-04-05T10:48:10;9.20;57.10
26164;DHT22;13914;48.178;11.716;2023-04-05T10:50:41;9.20;54.20
26164;DHT22;13914;48.178;11.716;2023-04-05T10:53:08;9.20;54.70
26164;DHT22;13914;48.178;11.716;2023-04-05T10:55:35;9.20;56.20
26164;DHT22;13914;48.178;11.716;2023-04-05T10:58:00;9.30;55.30
26164;DHT22;13914;48.178;11.716;2023-04-05T11:00:27;9.20;54.80
26164;DHT22;13914;48.178;11.716;2023-04-05T11:02:53;9.30;56.10
26164;DHT22;13914;48.178;11.716;2023-04-05T11:05:30;9.30;56.20
26164;DHT22;13914;48.178;11.716;2023-04-05T11:07:59;9.40;55.40
26164;DHT22;13914;48.178;11.716;2023-04-05T11:10:28;9.30;54.30
26164;DHT22;13914;48.178;11.716;2023-04-05T11:20:30;9.20;51.80
26164;DHT22;13914;48.178;11.716;2023-04-05T11:23:16;9.20;52.20
26164;DHT22;13914;48.178;11.716;2023-04-05T11:28:29;9.10;53.10
26164;DHT22;13914;48.178;11.716;2023-04-05T11:30:56;9.20;52.10
26164;DHT22;13914;48.178;11.716;2023-04-05T11:33:36;9.20;51.40
26164;DHT22;13914;48.178;11.716;2023-04-05T11:36:11;9.10;51.80
26164;DHT22;13914;48.178;11.716;2023-04-05T11:38:42;9.00;51.10
26164;DHT22;13914;48.178;11.716;2023-04-05T11:41:12;9.10;53.00
26164;DHT22;13914;48.178;11.716;2023-04-05T11:43:48;9.20;54.10
26164;DHT22;13914;48.178;11.716;2023-04-05T11:46:16;9.50;54.00
26164;DHT22;13914;48.178;11.716;2023-04-05T11:48:49;9.60;53.60
26164;DHT22;13914;48.178;11.716;2023-04-05T11:51:15;9.70;53.90
26164;DHT22;13914;48.178;11.716;2023-04-05T11:53:47;9.70;53.40
26164;DHT22;13914;48.178;11.716;2023-04-05T11:56:12;9.80;53.90
26164;DHT22;13914;48.178;11.716;2023-04-05T11:58:40;9.80;54.00
26164;DHT22;13914;48.178;11.716;2023-04-05T12:01:07;9.80;52.90
26164;DHT22;13914;48.178;11.716;2023-04-05T12:03:34;9.80;53.10
26164;DHT22;13914;48.178;11.716;2023-04-05T12:06:01;9.90;54.50
26164;DHT22;13914;48.178;11.716;2023-04-05T12:11:08;10.10;54.80
26164;DHT22;13914;48.178;11.716;2023-04-05T12:13:35;10.20;53.90
26164;DHT22;13914;48.178;11.716;2023-04-05T12:16:01;10.10;54.40
26164;DHT22;13914;48.178;11.716;2023-04-05T12:18:29;10.20;55.10
26164;DHT22;13914;48.178;11.716;2023-04-05T12:20:56;10.40;56.90
26164;DHT22;13914;48.178;11.716;2023-04-05T12:23:22;10.60;55.70
26164;DHT22;13914;48.178;11.716;2023-04-05T12:25:48;10.60;54.50
26164;DHT22;13914;48.178;11.716;2023-04-05T12:28:14;10.50;53.20
26164;DHT22;13914;48.178;11.716;2023-04-05T12:33:15;10.50;55.70
26164;DHT22;13914;48.178;11.716;2023-04-05T12:35:41;10.60;54.70
26164;DHT22;13914;48.178;11.716;2023-04-05T12:38:06;10.60;54.80
26164;DHT22;13914;48.178;11.716;2023-04-05T12:40:33;10.80;55.30
26164;DHT22;13914;48.178;11.716;2023-04-05T12:43:09;10.80;55.30
26164;DHT22;13914;48.178;11.716;2023-04-05T12:45:34;10.80;54.40
26164;DHT22;13914;48.178;11.716;2023-04-05T12:48:07;10.80;54.10
26164;DHT22;13914;48.178;11.716;2023-04-05T12:50:35;10.90;54.90
26164;DHT22;13914;48.178;11.716;2023-04-05T12:53:04;10.80;55.20
26164;DHT22;13914;48.178;11.716;2023-04-05T12:55:30;11.00;57.50
26164;DHT22;13914;48.178;11.716;2023-04-05T12:58:00;11.20;55.70
26164;DHT22;13914;48.178;11.716;2023-04-05T13:00:27;11.20;56.30
26164;DHT22;13914;48.178;11.716;2023-04-05T13:02:54;11.40;57.00
26164;DHT22;13914;48.178;11.716;2023-04-05T13:05:21;11.40;55.20
26164;DHT22;13914;48.178;11.716;2023-04-05T13:07:54;11.50;58.50
26164;DHT22;13914;48.178;11.716;2023-04-05T13:10:20;11.60;53.80
26164;DHT22;13914;48.178;11.716;2023-04-05T13:12:49;11.50;55.90
26164;DHT22;13914;48.178;11.716;2023-04-05T13:15:15;11.60;55.90
26164;DHT22;13914;48.178;11.716;2023-04-05T13:17:41;11.60;54.80
26164;DHT22;13914;48.178;11.716;2023-04-05T13:20:08;11.50;53.10
26164;DHT22;13914;48.178;11.716;2023-04-05T13:22:34;11.50;55.90
26164;DHT22;13914;48.178;11.716;2023-04-05T13:25:00;11.80;57.30
26164;DHT22;13914;48.178;11.716;2023-04-05T13:27:26;11.90;57.50
26164;DHT22;13914;48.178;11.716;2023-04-05T13:29:52;11.80;55.70
26164;DHT22;13914;48.178;11.716;2023-04-05T13:32:17;11.80;55.40
26164;DHT22;13914;48.178;11.716;2023-04-05T13:34:43;11.80;54.50
26164;DHT22;13914;48.178;11.716;2023-04-05T13:37:09;11.90;57.50
26164;DHT22;13914;48.178;11.716;2023-04-05T13:39:34;12.00;55.30
26164;DHT22;13914;48.178;11.716;2023-04-05T13:42:00;12.00;56.00
26164;DHT22;13914;48.178;11.716;2023-04-05T13:44:26;12.20;56.30
26164;DHT22;13914;48.178;11.716;2023-04-05T13:46:51;12.20;55.90
26164;DHT22;13914;48.178;11.716;2023-04-05T13:49:17;12.30;58.00
26164;DHT22;13914;48.178;11.716;2023-04-05T13:51:43;12.50;57.60
26164;DHT22;13914;48.178;11.716;2023-04-05T13:54:09;12.50;57.30
26164;DHT22;13914;48.178;11.716;2023-04-05T13:56:36;12.30;55.50
26164;DHT22;13914;48.178;11.716;2023-04-05T13:59:02;12.50;58.80
26164;DHT22;13914;48.178;11.716;2023-04-05T14:01:28;12.40;53.50
26164;DHT22;13914;48.178;11.716;2023-04-05T14:03:54;12.40;55.50
26164;DHT22;13914;48.178;11.716;2023-04-05T14:06:19;12.50;60.00
26164;DHT22;13914;48.178;11.716;2023-04-05T14:08:45;12.60;56.70
26164;DHT22;13914;48.178;11.716;2023-04-05T14:11:11;12.70;59.60
26164;DHT22;13914;48.178;11.716;2023-04-05T14:13:37;12.80;55.40
26164;DHT22;13914;48.178;11.716;2023-04-05T14:16:02;12.70;54.90
26164;DHT22;13914;48.178;11.716;2023-04-05T14:18:28;12.50;54.20
26164;DHT22;13914;48.178;11.716;2023-04-05T14:20:54;12.50;56.60
26164;DHT22;13914;48.178;11.716;2023-04-05T14:23:21;12.50;56.40
26164;DHT22;13914;48.178;11.716;2023-04-05T14:25:47;12.60;55.30
26164;DHT22;13914;48.178;11.716;2023-04-05T14:28:12;12.60;56.00
26164;DHT22;13914;48.178;11.716;2023-04-05T14:30:38;12.50;53.50
26164;DHT22;13914;48.178;11.716;2023-04-05T14:33:04;12.60;57.90
26164;DHT22;13914;48.178;11.716;2023-04-05T14:35:29;12.70;59.20
26164;DHT22;13914;48.178;11.716;2023-04-05T14:37:55;12.90;57.40
26164;DHT22;13914;48.178;11.716;2023-04-05T14:40:21;13.00;59.20
26164;DHT22;13914;48.178;11.716;2023-04-05T14:42:47;13.00;57.40
26164;DHT22;13914;48.178;11.716;2023-04-05T14:45:12;12.80;53.20
26164;DHT22;13914;48.178;11.716;2023-04-05T14:47:38;12.60;54.80
26164;DHT22;13914;48.178;11.716;2023-04-05T14:50:04;12.40;52.90
26164;DHT22;13914;48.178;11.716;2023-04-05T14:52:32;12.40;56.10
26164;DHT22;13914;48.178;11.716;2023-04-05T14:54:57;12.40;56.10
26164;DHT22;13914;48.178;11.716;2023-04-05T14:57:23;12.30;51.50
26164;DHT22;13914;48.178;11.716;2023-04-05T14:59:49;12.10;52.20
26164;DHT22;13914;48.178;11.716;2023-04-05T15:02:15;12.00;52.40
26164;DHT22;13914;48.178;11.716;2023-04-05T15:04:40;11.90;52.90
26164;DHT22;13914;48.178;11.716;2023-04-05T15:07:06;11.70;50.90
26164;DHT22;13914;48.178;11.716;2023-04-05T15:09:32;11.60;51.70
26164;DHT22;13914;48.178;11.716;2023-04-05T15:11:58;11.50;50.70
26164;DHT22;13914;48.178;11.716;2023-04-05T15:14:23;11.40;50.60
26164;DHT22;13914;48.178;11.716;2023-04-05T15:16:49;11.40;52.90
26164;DHT22;13914;48.178;11.716;2023-04-05T15:19:15;11.30;51.00
26164;DHT22;13914;48.178;11.716;2023-04-05T15:21:41;11.30;51.00
26164;DHT22;13914;48.178;11.716;2023-04-05T15:24:08;11.10;49.50
26164;DHT22;13914;48.178;11.716;2023-04-05T15:26:34;11.10;50.90
26164;DHT22;13914;48.178;11.716;2023-04-05T15:29:00;11.00;50.30
26164;DHT22;13914;48.178;11.716;2023-04-05T15:31:26;11.00;50.50
26164;DHT22;13914;48.178;11.716;2023-04-05T15:33:51;11.00;51.90
26164;DHT22;13914;48.178;11.716;2023-04-05T15:36:17;10.90;52.60
26164;DHT22;13914;48.178;11.716;2023-04-05T15:38:43;10.90;51.00
26164;DHT22;13914;48.178;11.716;2023-04-05T15:41:09;10.90;51.30
26164;DHT22;13914;48.178;11.716;2023-04-05T15:43:36;10.80;50.30
26164;DHT22;13914;48.178;11.716;2023-04-05T15:46:02;10.80;51.00
26164;DHT22;13914;48.178;11.716;2023-04-05T15:48:29;10.70;52.70
26164;DHT22;13914;48.178;11.716;2023-04-05T15:50:54;10.80;52.70
26164;DHT22;13914;48.178;11.716;2023-04-05T15:53:20;10.90;54.00
26164;DHT22;13914;48.178;11.716;2023-04-05T15:55:46;10.80;51.50
26164;DHT22;13914;48.178;11.716;2023-04-05T15:58:12;10.70;51.70